sensor_id;sensor_type;location;lat;lon;timestamp;P1;durP1;ratioP1;P2;durP2;ratioP2
23060;SDS011;11698;47.690;9.132;2023-04-09T00:00:09;12.25;;;7.40;;
23060;SDS011;11698;47.690;9.132;2023-04-09T00:02:35;9.98;;;7.07;;
23060;SDS011;11698;47.690;9.132;2023-04-09T00:05:02;10.50;;;7.40;;
23060;SDS011;11698;47.690;9.132;2023-04-09T00:07:28;11.45;;;7.10;;
23060;SDS011;11698;47.690;9.132;2023-04-09T00:09:54;9.73;;;6.90;;
23060;SDS011;11698;47.690;9.132;2023-04-09T00:12:20;9.02;;;6.40;;
23060;SDS011;11698;47.690;9.132;2023-04-09T00:14:46;9.35;;;6.93;;
23060;SDS011;11698;47.690;9.132;2023-04-09T00:17:12;10.57;;;7.03;;
23060;SDS011;11698;47.690;9.132;2023-04-09T00:19:38;10.77;;;7.10;;
23060;SDS011;11698;47.690;9.132;2023-04-09T00:22:04;9.65;;;6.45;;
23060;SDS011;11698;47.690;9.132;2023-04-09T00:24:30;9.95;;;6.68;;
23060;SDS011;11698;47.690;9.132;2023-04-09T00:26:56;9.93;;;6.57;;
23060;SDS011;11698;47.690;9.132;2023-04-09T00:29:22;9.53;;;6.50;;
23060;SDS011;11698;47.690;9.132;2023-04-09T00:31:48;9.43;;;6.20;;
23060;SDS011;11698;47.690;9.132;2023-04-09T00:34:14;9.68;;;6.70;;
23060;SDS011;11698;47.690;9.132;2023-04-09T00:36:40;10.40;;;6.72;;
23060;SDS011;11698;47.690;9.132;2023-04-09T00:39:06;10.35;;;6.88;;
23060;SDS011;11698;47.690;9.132;2023-04-09T00:41:32;8.98;;;6.07;;
23060;SDS011;11698;47.690;9.132;2023-04-09T00:43:58;9.85;;;6.43;;
23060;SDS011;11698;47.690;9.132;2023-04-09T00:46:24;9.95;;;6.85;;
23060;SDS011;11698;47.690;9.132;2023-04-09T00:48:50;10.15;;;6.55;;
23060;SDS011;11698;47.690;9.132;2023-04-09T00:51:16;9.48;;;6.65;;
23060;SDS011;11698;47.690;9.132;2023-04-09T00:53:42;9.38;;;6.15;;
23060;SDS011;11698;47.690;9.132;2023-04-09T00:56:08;11.07;;;6.80;;
23060;SDS011;11698;47.690;9.132;2023-04-09T00:58:35;10.05;;;6.38;;
23060;SDS011;11698;47.690;9.132;2023-04-09T01:01:01;10.35;;;6.65;;
23060;SDS011;11698;47.690;9.132;2023-04-09T01:03:27;10.43;;;6.80;;
23060;SDS011;11698;47.690;9.132;2023-04-09T01:10:58;10.07;;;7.07;;
23060;SDS011;11698;47.690;9.132;2023-04-09T01:13:29;8.80;;;6.47;;
23060;SDS011;11698;47.690;9.132;2023-04-09T01:15:56;9.05;;;6.32;;
23060;SDS011;11698;47.690;9.132;2023-04-09T01:18:28;11.35;;;7.72;;
23060;SDS011;11698;47.690;9.132;2023-04-09T01:20:59;11.23;;;7.72;;
23060;SDS011;11698;47.690;9.132;2023-04-09T01:28:44;11.65;;;8.30;;
23060;SDS011;11698;47.690;9.132;2023-04-09T01:31:17;11.77;;;7.93;;
23060;SDS011;11698;47.690;9.132;2023-04-09T01:33:44;10.80;;;7.57;;
23060;SDS011;11698;47.690;9.132;2023-04-09T01:36:11;12.27;;;7.63;;
23060;SDS011;11698;47.690;9.132;2023-04-09T01:38:39;11.18;;;7.55;;
23060;SDS011;11698;47.690;9.132;2023-04-09T01:41:06;10.95;;;7.65;;
23060;SDS011;11698;47.690;9.132;2023-04-09T01:43:33;12.65;;;7.88;;
23060;SDS011;11698;47.690;9.132;2023-04-09T01:46:00;10.97;;;7.40;;
23060;SDS011;11698;47.690;9.132;2023-04-09T01:48:28;12.32;;;8.00;;
23060;SDS011;11698;47.690;9.132;2023-04-09T01:50:55;10.90;;;7.22;;
23060;SDS011;11698;47.690;9.132;2023-04-09T01:53:20;12.18;;;7.40;;
23060;SDS011;11698;47.690;9.132;2023-04-09T01:55:47;10.75;;;7.00;;
23060;SDS011;11698;47.690;9.132;2023-04-09T01:58:13;12.23;;;8.25;;
23060;SDS011;11698;47.690;9.132;2023-04-09T02:00:47;12.88;;;7.82;;
23060;SDS011;11698;47.690;9.132;2023-04-09T02:03:28;12.13;;;7.78;;
23060;SDS011;11698;47.690;9.132;2023-04-09T02:06:12;11.82;;;7.30;;
23060;SDS011;11698;47.690;9.132;2023-04-09T02:08:45;9.93;;;6.70;;
23060;SDS011;11698;47.690;9.132;2023-04-09T02:11:11;10.95;;;6.95;;
23060;SDS011;11698;47.690;9.132;2023-04-09T02:13:38;11.23;;;7.68;;
23060;SDS011;11698;47.690;9.132;2023-04-09T02:16:05;12.20;;;7.43;;
23060;SDS011;11698;47.690;9.132;2023-04-09T02:18:31;11.32;;;7.55;;
23060;SDS011;11698;47.690;9.132;2023-04-09T02:20:58;10.73;;;7.25;;
23060;SDS011;11698;47.690;9.132;2023-04-09T02:23:25;12.70;;;8.25;;
23060;SDS011;11698;47.690;9.132;2023-04-09T02:25:51;10.80;;;7.70;;
23060;SDS011;11698;47.690;9.132;2023-04-09T02:28:18;12.10;;;7.57;;
23060;SDS011;11698;47.690;9.132;2023-04-09T02:30:44;11.32;;;7.20;;
23060;SDS011;11698;47.690;9.132;2023-04-09T02:33:10;12.20;;;7.78;;
23060;SDS011;11698;47.690;9.132;2023-04-09T02:35:36;11.98;;;7.50;;
23060;SDS011;11698;47.690;9.132;2023-04-09T02:38:02;11.35;;;7.60;;
23060;SDS011;11698;47.690;9.132;2023-04-09T02:40:28;10.43;;;7.15;;
23060;SDS011;11698;47.690;9.132;2023-04-09T02:42:54;11.73;;;7.70;;
23060;SDS011;11698;47.690;9.132;2023-04-09T02:45:20;11.93;;;7.60;;
23060;SDS011;11698;47.690;9.132;2023-04-09T02:47:46;11.55;;;7.03;;
23060;SDS011;11698;47.690;9.132;2023-04-09T02:50:12;12.27;;;7.22;;
23060;SDS011;11698;47.690;9.132;2023-04-09T02:52:38;11.98;;;7.57;;
23060;SDS011;11698;47.690;9.132;2023-04-09T02:55:04;11.52;;;7.72;;
23060;SDS011;11698;47.690;9.132;2023-04-09T02:57:30;10.88;;;7.38;;
23060;SDS011;11698;47.690;9.132;2023-04-09T02:59:57;11.95;;;7.68;;
23060;SDS011;11698;47.690;9.132;2023-04-09T03:02:23;13.45;;;7.97;;
23060;SDS011;11698;47.690;9.132;2023-04-09T03:04:49;11.93;;;7.90;;
23060;SDS011;11698;47.690;9.132;2023-04-09T03:07:17;13.43;;;8.00;;
23060;SDS011;11698;47.690;9.132;2023-04-09T03:09:43;12.10;;;7.43;;
23060;SDS011;11698;47.690;9.132;2023-04-09T03:12:09;11.57;;;6.90;;
23060;SDS011;11698;47.690;9.132;2023-04-09T03:14:35;8.93;;;6.03;;
23060;SDS011;11698;47.690;9.132;2023-04-09T03:17:01;10.65;;;6.47;;
23060;SDS011;11698;47.690;9.132;2023-04-09T03:19:27;11.25;;;6.38;;
23060;SDS011;11698;47.690;9.132;2023-04-09T03:21:53;10.82;;;7.00;;
23060;SDS011;11698;47.690;9.132;2023-04-09T03:24:19;11.55;;;7.88;;
23060;SDS011;11698;47.690;9.132;2023-04-09T03:26:45;12.88;;;8.27;;
23060;SDS011;11698;47.690;9.132;2023-04-09T03:29:11;13.93;;;8.45;;
23060;SDS011;11698;47.690;9.132;2023-04-09T03:31:37;14.57;;;8.52;;
23060;SDS011;11698;47.690;9.132;2023-04-09T03:34:03;14.27;;;8.30;;
23060;SDS011;11698;47.690;9.132;2023-04-09T03:36:29;14.05;;;8.77;;
23060;SDS011;11698;47.690;9.132;2023-04-09T03:38:55;14.40;;;8.88;;
23060;SDS011;11698;47.690;9.132;2023-04-09T03:41:21;13.18;;;8.68;;
23060;SDS011;11698;47.690;9.132;2023-04-09T03:43:47;14.55;;;8.57;;
23060;SDS011;11698;47.690;9.132;2023-04-09T03:46:13;15.13;;;9.02;;
23060;SDS011;11698;47.690;9.132;2023-04-09T03:48:40;13.13;;;8.40;;
23060;SDS011;11698;47.690;9.132;2023-04-09T03:51:10;14.95;;;9.10;;
23060;SDS011;11698;47.690;9.132;2023-04-09T03:53:36;15.48;;;9.20;;
23060;SDS011;11698;47.690;9.132;2023-04-09T03:56:02;13.98;;;8.07;;
23060;SDS011;11698;47.690;9.132;2023-04-09T03:58:28;13.15;;;7.95;;
23060;SDS011;11698;47.690;9.132;2023-04-09T04:00:54;12.93;;;8.00;;
23060;SDS011;11698;47.690;9.132;2023-04-09T04:03:20;14.43;;;8.40;;
23060;SDS011;11698;47.690;9.132;2023-04-09T04:05:46;14.48;;;8.48;;
23060;SDS011;11698;47.690;9.132;2023-04-09T04:08:12;15.52;;;8.77;;
23060;SDS011;11698;47.690;9.132;2023-04-09T04:10:38;15.93;;;8.55;;
23060;SDS011;11698;47.690;9.132;2023-04-09T04:13:07;15.20;;;8.95;;
23060;SDS011;11698;47.690;9.132;2023-04-09T04:15:40;17.80;;;9.23;;
23060;SDS011;11698;47.690;9.132;2023-04-09T04:18:06;14.87;;;8.70;;
23060;SDS011;11698;47.690;9.132;2023-04-09T04:20:32;14.05;;;8.43;;
23060;SDS011;11698;47.690;9.132;2023-04-09T04:22:58;13.13;;;8.13;;
23060;SDS011;11698;47.690;9.132;2023-04-09T04:25:24;14.50;;;8.38;;
23060;SDS011;11698;47.690;9.132;2023-04-09T04:27:50;12.55;;;7.70;;
23060;SDS011;11698;47.690;9.132;2023-04-09T04:30:16;12.43;;;7.75;;
23060;SDS011;11698;47.690;9.132;2023-04-09T04:32:42;11.85;;;7.30;;
23060;SDS011;11698;47.690;9.132;2023-04-09T04:35:08;14.02;;;7.80;;
23060;SDS011;11698;47.690;9.132;2023-04-09T04:37:34;13.40;;;8.20;;
23060;SDS011;11698;47.690;9.132;2023-04-09T04:40:01;13.03;;;7.93;;
23060;SDS011;11698;47.690;9.132;2023-04-09T04:42:28;12.45;;;7.88;;
23060;SDS011;11698;47.690;9.132;2023-04-09T04:44:54;15.68;;;8.48;;
23060;SDS011;11698;47.690;9.132;2023-04-09T04:47:20;16.92;;;8.52;;
23060;SDS011;11698;47.690;9.132;2023-04-09T04:49:46;14.05;;;8.80;;
23060;SDS011;11698;47.690;9.132;2023-04-09T04:52:12;15.68;;;8.23;;
23060;SDS011;11698;47.690;9.132;2023-04-09T04:54:38;15.20;;;9.13;;
23060;SDS011;11698;47.690;9.132;2023-04-09T04:57:04;13.83;;;8.90;;
23060;SDS011;11698;47.690;9.132;2023-04-09T04:59:30;15.17;;;8.77;;
23060;SDS011;11698;47.690;9.132;2023-04-09T05:01:56;14.77;;;8.45;;
23060;SDS011;11698;47.690;9.132;2023-04-09T05:04:22;16.05;;;9.38;;
23060;SDS011;11698;47.690;9.132;2023-04-09T05:06:48;13.35;;;8.25;;
23060;SDS011;11698;47.690;9.132;2023-04-09T05:09:15;14.80;;;8.30;;
23060;SDS011;11698;47.690;9.132;2023-04-09T05:11:41;17.05;;;9.38;;
23060;SDS011;11698;47.690;9.132;2023-04-09T05:14:07;14.13;;;8.23;;
23060;SDS011;11698;47.690;9.132;2023-04-09T05:16:33;16.30;;;8.60;;
23060;SDS011;11698;47.690;9.132;2023-04-09T05:18:59;15.90;;;9.30;;
23060;SDS011;11698;47.690;9.132;2023-04-09T05:21:25;16.15;;;9.25;;
23060;SDS011;11698;47.690;9.132;2023-04-09T05:23:51;15.88;;;8.70;;
23060;SDS011;11698;47.690;9.132;2023-04-09T05:26:18;16.80;;;9.32;;
23060;SDS011;11698;47.690;9.132;2023-04-09T05:28:45;14.48;;;8.68;;
23060;SDS011;11698;47.690;9.132;2023-04-09T05:31:11;13.32;;;8.32;;
23060;SDS011;11698;47.690;9.132;2023-04-09T05:33:39;12.35;;;7.65;;
23060;SDS011;11698;47.690;9.132;2023-04-09T05:36:05;13.45;;;8.40;;
23060;SDS011;11698;47.690;9.132;2023-04-09T05:38:31;14.60;;;8.60;;
23060;SDS011;11698;47.690;9.132;2023-04-09T05:40:58;13.95;;;8.60;;
23060;SDS011;11698;47.690;9.132;2023-04-09T05:43:24;15.35;;;8.55;;
23060;SDS011;11698;47.690;9.132;2023-04-09T05:45:49;14.20;;;7.93;;
23060;SDS011;11698;47.690;9.132;2023-04-09T05:48:15;17.63;;;9.27;;
23060;SDS011;11698;47.690;9.132;2023-04-09T05:50:50;14.82;;;8.52;;
23060;SDS011;11698;47.690;9.132;2023-04-09T05:53:31;16.35;;;8.77;;
23060;SDS011;11698;47.690;9.132;2023-04-09T05:55:57;14.15;;;8.45;;
23060;SDS011;11698;47.690;9.132;2023-04-09T05:58:23;16.02;;;9.52;;
23060;SDS011;11698;47.690;9.132;2023-04-09T06:00:49;14.73;;;8.63;;
23060;SDS011;11698;47.690;9.132;2023-04-09T06:03:16;15.05;;;8.82;;
23060;SDS011;11698;47.690;9.132;2023-04-09T06:05:43;16.73;;;10.05;;
23060;SDS011;11698;47.690;9.132;2023-04-09T06:08:09;16.88;;;9.15;;
23060;SDS011;11698;47.690;9.132;2023-04-09T06:10:36;15.10;;;9.77;;
23060;SDS011;11698;47.690;9.132;2023-04-09T06:13:02;14.30;;;9.32;;
23060;SDS011;11698;47.690;9.132;2023-04-09T06:15:28;16.17;;;9.30;;
23060;SDS011;11698;47.690;9.132;2023-04-09T06:17:54;18.35;;;9.75;;
23060;SDS011;11698;47.690;9.132;2023-04-09T06:20:20;17.52;;;10.43;;
23060;SDS011;11698;47.690;9.132;2023-04-09T06:22:46;15.02;;;9.63;;
23060;SDS011;11698;47.690;9.132;2023-04-09T06:25:12;17.60;;;10.18;;
23060;SDS011;11698;47.690;9.132;2023-04-09T06:27:38;16.00;;;9.95;;
23060;SDS011;11698;47.690;9.132;2023-04-09T06:30:04;16.40;;;9.98;;
23060;SDS011;11698;47.690;9.132;2023-04-09T06:32:31;17.15;;;10.45;;
23060;SDS011;11698;47.690;9.132;2023-04-09T06:34:57;18.10;;;10.43;;
23060;SDS011;11698;47.690;9.132;2023-04-09T06:37:23;15.38;;;10.15;;
23060;SDS011;11698;47.690;9.132;2023-04-09T06:39:49;16.33;;;9.80;;
23060;SDS011;11698;47.690;9.132;2023-04-09T06:42:16;15.52;;;9.48;;
23060;SDS011;11698;47.690;9.132;2023-04-09T06:44:42;17.35;;;9.55;;
23060;SDS011;11698;47.690;9.132;2023-04-09T06:47:08;15.40;;;9.45;;
23060;SDS011;11698;47.690;9.132;2023-04-09T06:49:34;14.60;;;9.25;;
23060;SDS011;11698;47.690;9.132;2023-04-09T06:52:00;18.33;;;10.57;;
23060;SDS011;11698;47.690;9.132;2023-04-09T06:54:26;15.00;;;9.50;;
23060;SDS011;11698;47.690;9.132;2023-04-09T06:56:52;14.43;;;8.93;;
23060;SDS011;11698;47.690;9.132;2023-04-09T06:59:18;14.95;;;9.43;;
23060;SDS011;11698;47.690;9.132;2023-04-09T07:01:43;15.35;;;9.70;;
23060;SDS011;11698;47.690;9.132;2023-04-09T07:04:11;15.52;;;9.82;;
23060;SDS011;11698;47.690;9.132;2023-04-09T07:06:37;16.42;;;9.05;;
23060;SDS011;11698;47.690;9.132;2023-04-09T07:09:04;14.23;;;9.25;;
23060;SDS011;11698;47.690;9.132;2023-04-09T07:11:30;15.52;;;9.50;;
23060;SDS011;11698;47.690;9.132;2023-04-09T07:13:57;13.13;;;8.77;;
23060;SDS011;11698;47.690;9.132;2023-04-09T07:16:23;14.25;;;9.13;;
23060;SDS011;11698;47.690;9.132;2023-04-09T07:18:49;15.13;;;9.15;;
23060;SDS011;11698;47.690;9.132;2023-04-09T07:21:15;14.05;;;8.95;;
23060;SDS011;11698;47.690;9.132;2023-04-09T07:23:41;13.95;;;8.95;;
23060;SDS011;11698;47.690;9.132;2023-04-09T07:26:07;15.18;;;9.38;;
23060;SDS011;11698;47.690;9.132;2023-04-09T07:28:33;14.17;;;9.33;;
23060;SDS011;11698;47.690;9.132;2023-04-09T07:31:00;15.48;;;9.13;;
23060;SDS011;11698;47.690;9.132;2023-04-09T07:33:29;15.25;;;9.55;;
23060;SDS011;11698;47.690;9.132;2023-04-09T07:35:55;14.02;;;8.80;;
23060;SDS011;11698;47.690;9.132;2023-04-09T07:38:21;15.18;;;9.50;;
23060;SDS011;11698;47.690;9.132;2023-04-09T07:40:47;12.38;;;8.65;;
23060;SDS011;11698;47.690;9.132;2023-04-09T07:43:13;15.00;;;9.20;;
23060;SDS011;11698;47.690;9.132;2023-04-09T07:45:39;13.52;;;9.13;;
23060;SDS011;11698;47.690;9.132;2023-04-09T07:48:05;13.02;;;8.38;;
23060;SDS011;11698;47.690;9.132;2023-04-09T07:50:33;14.13;;;9.57;;
23060;SDS011;11698;47.690;9.132;2023-04-09T07:52:59;12.35;;;8.10;;
23060;SDS011;11698;47.690;9.132;2023-04-09T07:55:25;13.70;;;9.05;;
23060;SDS011;11698;47.690;9.132;2023-04-09T07:57:52;13.70;;;8.82;;
23060;SDS011;11698;47.690;9.132;2023-04-09T08:00:18;15.52;;;9.57;;
23060;SDS011;11698;47.690;9.132;2023-04-09T08:02:44;13.30;;;8.90;;
23060;SDS011;11698;47.690;9.132;2023-04-09T08:05:10;14.25;;;9.00;;
23060;SDS011;11698;47.690;9.132;2023-04-09T08:07:36;14.43;;;9.10;;
23060;SDS011;11698;47.690;9.132;2023-04-09T08:10:03;13.15;;;9.18;;
23060;SDS011;11698;47.690;9.132;2023-04-09T08:12:29;13.83;;;9.07;;
23060;SDS011;11698;47.690;9.132;2023-04-09T08:14:55;12.80;;;8.53;;
23060;SDS011;11698;47.690;9.132;2023-04-09T08:17:21;14.80;;;9.50;;
23060;SDS011;11698;47.690;9.132;2023-04-09T08:19:48;14.15;;;9.68;;
23060;SDS011;11698;47.690;9.132;2023-04-09T08:22:14;13.38;;;9.13;;
23060;SDS011;11698;47.690;9.132;2023-04-09T08:24:41;15.98;;;10.13;;
23060;SDS011;11698;47.690;9.132;2023-04-09T08:27:07;13.80;;;8.68;;
23060;SDS011;11698;47.690;9.132;2023-04-09T08:29:33;13.77;;;9.23;;
23060;SDS011;11698;47.690;9.132;2023-04-09T08:31:59;14.45;;;8.90;;
23060;SDS011;11698;47.690;9.132;2023-04-09T08:34:26;13.43;;;9.07;;
23060;SDS011;11698;47.690;9.132;2023-04-09T08:36:52;14.13;;;9.07;;
23060;SDS011;11698;47.690;9.132;2023-04-09T08:39:18;13.20;;;9.33;;
23060;SDS011;11698;47.690;9.132;2023-04-09T08:41:45;14.52;;;9.02;;
23060;SDS011;11698;47.690;9.132;2023-04-09T08:44:14;12.90;;;8.37;;
23060;SDS011;11698;47.690;9.132;2023-04-09T08:46:41;13.40;;;9.07;;
23060;SDS011;11698;47.690;9.132;2023-04-09T08:49:08;13.60;;;8.68;;
23060;SDS011;11698;47.690;9.132;2023-04-09T08:51:35;13.67;;;9.00;;
23060;SDS011;11698;47.690;9.132;2023-04-09T08:54:01;13.57;;;8.73;;
23060;SDS011;11698;47.690;9.132;2023-04-09T08:56:27;13.13;;;8.63;;
23060;SDS011;11698;47.690;9.132;2023-04-09T08:58:53;14.15;;;8.93;;
23060;SDS011;11698;47.690;9.132;2023-04-09T09:01:23;12.55;;;8.93;;
23060;SDS011;11698;47.690;9.132;2023-04-09T09:04:03;13.45;;;8.38;;
23060;SDS011;11698;47.690;9.132;2023-04-09T09:06:36;11.43;;;8.32;;
23060;SDS011;11698;47.690;9.132;2023-04-09T09:09:09;12.88;;;8.30;;
23060;SDS011;11698;47.690;9.132;2023-04-09T09:11:36;13.20;;;8.57;;
23060;SDS011;11698;47.690;9.132;2023-04-09T09:14:04;11.63;;;8.00;;
23060;SDS011;11698;47.690;9.132;2023-04-09T09:16:30;11.40;;;7.82;;
23060;SDS011;11698;47.690;9.132;2023-04-09T09:18:58;13.68;;;8.50;;
23060;SDS011;11698;47.690;9.132;2023-04-09T09:21:25;11.82;;;8.45;;
23060;SDS011;11698;47.690;9.132;2023-04-09T09:23:52;12.73;;;8.40;;
23060;SDS011;11698;47.690;9.132;2023-04-09T09:26:20;14.55;;;8.80;;
23060;SDS011;11698;47.690;9.132;2023-04-09T09:28:47;13.00;;;8.23;;
23060;SDS011;11698;47.690;9.132;2023-04-09T09:31:13;12.65;;;8.35;;
23060;SDS011;11698;47.690;9.132;2023-04-09T09:33:40;10.00;;;7.63;;
23060;SDS011;11698;47.690;9.132;2023-04-09T09:36:06;13.20;;;8.67;;
23060;SDS011;11698;47.690;9.132;2023-04-09T09:38:33;10.52;;;7.65;;
23060;SDS011;11698;47.690;9.132;2023-04-09T09:41:03;11.80;;;8.27;;
23060;SDS011;11698;47.690;9.132;2023-04-09T09:43:40;11.48;;;8.57;;
23060;SDS011;11698;47.690;9.132;2023-04-09T09:46:07;12.68;;;8.65;;
23060;SDS011;11698;47.690;9.132;2023-04-09T09:48:33;13.48;;;8.40;;
23060;SDS011;11698;47.690;9.132;2023-04-09T09:50:59;12.23;;;8.30;;
23060;SDS011;11698;47.690;9.132;2023-04-09T09:53:27;11.98;;;8.35;;
23060;SDS011;11698;47.690;9.132;2023-04-09T09:55:55;11.23;;;7.88;;
23060;SDS011;11698;47.690;9.132;2023-04-09T09:58:22;13.65;;;9.20;;
23060;SDS011;11698;47.690;9.132;2023-04-09T10:00:49;12.43;;;8.63;;
23060;SDS011;11698;47.690;9.132;2023-04-09T10:03:21;11.10;;;7.63;;
23060;SDS011;11698;47.690;9.132;2023-04-09T10:05:48;11.98;;;7.55;;
23060;SDS011;11698;47.690;9.132;2023-04-09T10:08:14;10.50;;;7.32;;
23060;SDS011;11698;47.690;9.132;2023-04-09T10:10:40;11.30;;;7.32;;
23060;SDS011;11698;47.690;9.132;2023-04-09T10:13:08;9.90;;;7.30;;
23060;SDS011;11698;47.690;9.132;2023-04-09T10:15:39;10.87;;;7.30;;
23060;SDS011;11698;47.690;9.132;2023-04-09T10:18:08;10.07;;;7.20;;
23060;SDS011;11698;47.690;9.132;2023-04-09T10:20:42;9.32;;;6.35;;
23060;SDS011;11698;47.690;9.132;2023-04-09T10:23:14;11.35;;;7.57;;
23060;SDS011;11698;47.690;9.132;2023-04-09T10:25:43;8.98;;;6.78;;
23060;SDS011;11698;47.690;9.132;2023-04-09T10:28:14;11.25;;;7.13;;
23060;SDS011;11698;47.690;9.132;2023-04-09T10:30:40;9.88;;;6.97;;
23060;SDS011;11698;47.690;9.132;2023-04-09T10:33:11;9.17;;;6.77;;
23060;SDS011;11698;47.690;9.132;2023-04-09T10:35:37;9.27;;;6.78;;
23060;SDS011;11698;47.690;9.132;2023-04-09T10:38:07;9.20;;;6.22;;
23060;SDS011;11698;47.690;9.132;2023-04-09T10:40:34;10.60;;;7.13;;
23060;SDS011;11698;47.690;9.132;2023-04-09T10:43:00;9.30;;;7.00;;
23060;SDS011;11698;47.690;9.132;2023-04-09T10:45:37;9.48;;;6.65;;
23060;SDS011;11698;47.690;9.132;2023-04-09T10:48:04;10.82;;;7.25;;
23060;SDS011;11698;47.690;9.132;2023-04-09T10:50:31;9.13;;;6.90;;
23060;SDS011;11698;47.690;9.132;2023-04-09T10:53:01;11.52;;;7.25;;
23060;SDS011;11698;47.690;9.132;2023-04-09T10:55:33;25.02;;;12.48;;
23060;SDS011;11698;47.690;9.132;2023-04-09T10:58:06;9.57;;;6.80;;
23060;SDS011;11698;47.690;9.132;2023-04-09T11:00:35;8.50;;;6.35;;
23060;SDS011;11698;47.690;9.132;2023-04-09T11:05:32;7.47;;;5.68;;
23060;SDS011;11698;47.690;9.132;2023-04-09T11:08:09;9.30;;;6.45;;
23060;SDS011;11698;47.690;9.132;2023-04-09T11:10:39;9.38;;;6.35;;
23060;SDS011;11698;47.690;9.132;2023-04-09T11:13:06;8.30;;;6.27;;
23060;SDS011;11698;47.690;9.132;2023-04-09T11:15:36;7.70;;;5.72;;
23060;SDS011;11698;47.690;9.132;2023-04-09T11:18:02;8.20;;;5.50;;
23060;SDS011;11698;47.690;9.132;2023-04-09T11:20:30;7.60;;;5.47;;
23060;SDS011;11698;47.690;9.132;2023-04-09T11:22:58;6.75;;;5.32;;
23060;SDS011;11698;47.690;9.132;2023-04-09T11:25:28;6.43;;;5.22;;
23060;SDS011;11698;47.690;9.132;2023-04-09T11:27:54;7.53;;;5.15;;
23060;SDS011;11698;47.690;9.132;2023-04-09T11:30:21;6.43;;;4.93;;
23060;SDS011;11698;47.690;9.132;2023-04-09T11:32:47;5.50;;;4.63;;
23060;SDS011;11698;47.690;9.132;2023-04-09T11:35:15;6.38;;;4.82;;
23060;SDS011;11698;47.690;9.132;2023-04-09T11:37:41;5.97;;;4.82;;
23060;SDS011;11698;47.690;9.132;2023-04-09T11:40:14;5.20;;;4.30;;
23060;SDS011;11698;47.690;9.132;2023-04-09T11:42:41;5.93;;;4.60;;
23060;SDS011;11698;47.690;9.132;2023-04-09T11:45:08;5.65;;;4.75;;
23060;SDS011;11698;47.690;9.132;2023-04-09T11:47:35;6.45;;;5.00;;
23060;SDS011;11698;47.690;9.132;2023-04-09T11:50:01;5.78;;;4.40;;
23060;SDS011;11698;47.690;9.132;2023-04-09T11:52:27;6.65;;;4.80;;
23060;SDS011;11698;47.690;9.132;2023-04-09T11:54:58;6.85;;;5.55;;
23060;SDS011;11698;47.690;9.132;2023-04-09T11:57:35;6.18;;;4.68;;
23060;SDS011;11698;47.690;9.132;2023-04-09T12:00:20;6.68;;;5.00;;
23060;SDS011;11698;47.690;9.132;2023-04-09T12:02:58;5.38;;;4.38;;
23060;SDS011;11698;47.690;9.132;2023-04-09T12:05:31;6.30;;;4.60;;
23060;SDS011;11698;47.690;9.132;2023-04-09T12:08:06;6.97;;;4.53;;
23060;SDS011;11698;47.690;9.132;2023-04-09T12:10:33;4.97;;;4.25;;
23060;SDS011;11698;47.690;9.132;2023-04-09T12:13:07;4.90;;;3.95;;
23060;SDS011;11698;47.690;9.132;2023-04-09T12:15:37;5.28;;;4.40;;
23060;SDS011;11698;47.690;9.132;2023-04-09T12:18:09;4.90;;;3.75;;
23060;SDS011;11698;47.690;9.132;2023-04-09T12:20:39;4.50;;;3.63;;
23060;SDS011;11698;47.690;9.132;2023-04-09T12:23:06;4.00;;;3.20;;
23060;SDS011;11698;47.690;9.132;2023-04-09T12:25:33;2.97;;;2.67;;
23060;SDS011;11698;47.690;9.132;2023-04-09T12:28:00;3.05;;;2.70;;
23060;SDS011;11698;47.690;9.132;2023-04-09T12:30:27;2.85;;;2.55;;
23060;SDS011;11698;47.690;9.132;2023-04-09T12:32:53;2.60;;;2.37;;
23060;SDS011;11698;47.690;9.132;2023-04-09T12:35:20;2.35;;;2.15;;
23060;SDS011;11698;47.690;9.132;2023-04-09T12:37:46;3.03;;;2.72;;
23060;SDS011;11698;47.690;9.132;2023-04-09T12:40:12;2.88;;;2.40;;
23060;SDS011;11698;47.690;9.132;2023-04-09T12:42:42;3.22;;;2.92;;
23060;SDS011;11698;47.690;9.132;2023-04-09T12:45:09;3.40;;;2.83;;
23060;SDS011;11698;47.690;9.132;2023-04-09T12:47:35;2.70;;;2.40;;
23060;SDS011;11698;47.690;9.132;2023-04-09T12:50:03;3.03;;;2.60;;
23060;SDS011;11698;47.690;9.132;2023-04-09T12:52:29;2.85;;;2.58;;
23060;SDS011;11698;47.690;9.132;2023-04-09T12:54:55;2.55;;;2.35;;
23060;SDS011;11698;47.690;9.132;2023-04-09T12:57:21;2.30;;;2.10;;
23060;SDS011;11698;47.690;9.132;2023-04-09T12:59:47;2.45;;;2.22;;
23060;SDS011;11698;47.690;9.132;2023-04-09T13:02:13;2.83;;;2.40;;
23060;SDS011;11698;47.690;9.132;2023-04-09T13:04:39;2.10;;;1.90;;
23060;SDS011;11698;47.690;9.132;2023-04-09T13:07:05;1.90;;;1.70;;
23060;SDS011;11698;47.690;9.132;2023-04-09T13:09:31;1.80;;;1.70;;
23060;SDS011;11698;47.690;9.132;2023-04-09T13:11:59;2.28;;;1.90;;
23060;SDS011;11698;47.690;9.132;2023-04-09T13:14:25;1.63;;;1.52;;
23060;SDS011;11698;47.690;9.132;2023-04-09T13:16:51;2.10;;;1.90;;
23060;SDS011;11698;47.690;9.132;2023-04-09T13:19:18;2.05;;;1.85;;
23060;SDS011;11698;47.690;9.132;2023-04-09T13:21:44;2.13;;;1.90;;
23060;SDS011;11698;47.690;9.132;2023-04-09T13:24:10;2.20;;;2.00;;
23060;SDS011;11698;47.690;9.132;2023-04-09T13:26:36;2.00;;;1.83;;
23060;SDS011;11698;47.690;9.132;2023-04-09T13:29:02;1.88;;;1.77;;
23060;SDS011;11698;47.690;9.132;2023-04-09T13:31:28;1.95;;;1.75;;
23060;SDS011;11698;47.690;9.132;2023-04-09T13:33:55;2.20;;;1.80;;
23060;SDS011;11698;47.690;9.132;2023-04-09T13:36:21;1.80;;;1.70;;
23060;SDS011;11698;47.690;9.132;2023-04-09T13:38:47;1.80;;;1.70;;
23060;SDS011;11698;47.690;9.132;2023-04-09T13:41:13;1.60;;;1.50;;
23060;SDS011;11698;47.690;9.132;2023-04-09T13:43:39;2.10;;;1.90;;
23060;SDS011;11698;47.690;9.132;2023-04-09T13:46:05;1.95;;;1.75;;
23060;SDS011;11698;47.690;9.132;2023-04-09T13:48:31;2.25;;;1.88;;
23060;SDS011;11698;47.690;9.132;2023-04-09T13:50:57;1.83;;;1.73;;
23060;SDS011;11698;47.690;9.132;2023-04-09T13:53:23;2.20;;;2.00;;
23060;SDS011;11698;47.690;9.132;2023-04-09T13:55:50;1.90;;;1.70;;
23060;SDS011;11698;47.690;9.132;2023-04-09T13:58:16;1.92;;;1.80;;
23060;SDS011;11698;47.690;9.132;2023-04-09T14:00:42;1.90;;;1.80;;
23060;SDS011;11698;47.690;9.132;2023-04-09T14:03:08;1.85;;;1.67;;
23060;SDS011;11698;47.690;9.132;2023-04-09T14:05:34;1.83;;;1.73;;
23060;SDS011;11698;47.690;9.132;2023-04-09T14:08:01;2.00;;;1.80;;
23060;SDS011;11698;47.690;9.132;2023-04-09T14:10:27;2.00;;;1.90;;
23060;SDS011;11698;47.690;9.132;2023-04-09T14:12:53;1.80;;;1.70;;
23060;SDS011;11698;47.690;9.132;2023-04-09T14:15:19;2.03;;;1.60;;
23060;SDS011;11698;47.690;9.132;2023-04-09T14:17:46;1.95;;;1.85;;
23060;SDS011;11698;47.690;9.132;2023-04-09T14:20:12;2.00;;;1.80;;
23060;SDS011;11698;47.690;9.132;2023-04-09T14:22:37;1.67;;;1.57;;
23060;SDS011;11698;47.690;9.132;2023-04-09T14:25:05;1.77;;;1.67;;
23060;SDS011;11698;47.690;9.132;2023-04-09T14:27:31;1.60;;;1.50;;
23060;SDS011;11698;47.690;9.132;2023-04-09T14:29:57;1.67;;;1.57;;
23060;SDS011;11698;47.690;9.132;2023-04-09T14:32:23;3.05;;;2.42;;
23060;SDS011;11698;47.690;9.132;2023-04-09T14:34:49;4.10;;;3.40;;
23060;SDS011;11698;47.690;9.132;2023-04-09T14:37:15;2.85;;;2.38;;
23060;SDS011;11698;47.690;9.132;2023-04-09T14:39:41;3.38;;;2.90;;
23060;SDS011;11698;47.690;9.132;2023-04-09T14:42:07;1.63;;;1.52;;
23060;SDS011;11698;47.690;9.132;2023-04-09T14:44:33;1.83;;;1.60;;
23060;SDS011;11698;47.690;9.132;2023-04-09T14:46:59;1.80;;;1.70;;
23060;SDS011;11698;47.690;9.132;2023-04-09T14:49:25;1.77;;;1.67;;